Melstone, Montana
Current Conditions -  °F | °C
As of 11:55 PM on Saturday 25 Oct 2014 (Local Time) from KMVH Reporting Station
Clear Clear  
Wind Chill: 54°   Ceiling: Unl
Heat Index: 54°   Visibility: 10mi
Dew Point: 32°   Wind: 14mph
Humidity: 44%   Direction: 240°WSW
Pressure: 29.67"   Gusts: NA
Location:  46.6°N, 107.87°W
Report Text: KMVH 260555Z AUTO 24012KT 10SM CLR 12/M00 A2967 RMK A01
Loading
Personal Weather Stations






























Interactive Weather Map
Tropical Storm Tracking
New forecast layout! Learn more

10-Day Weather Forecast

Advertisements
Track Severe Weather on mobile